• Join FlightAware (Why Join?)
  • Login
  • US Flag 
10:22AM EDT


 

Airport Tracker/Info


-or-


 

Live Flight TrackerFlight Track Log ✈ N960DL ✈ 02-May-2013 ✈ KDCA - KATL

Flight Track Log - Related Links

Times and Time Zones

All times are in EDT time to prevent confusion due to time zone crossing. See the N960DL flight status page for this flight to view local times or setup timezone preferences in your user account.

Time Position Orientation Groundspeed Altitude Reporting Facility
EDT Latitude Longitude Course Direction KTS MPH feet Rate Location/Type
06:15PM 38.8167 -77.0333 237° Southwest 172 198 1,500  Level Potomac TRACON
06:16PM 38.7500 -77.0333 180° South 257 296 3,800 2,760 Climbing Potomac TRACON
06:17PM 38.6658 -77.3807 234° Southwest  Level FlightAware Approximate
06:17PM 38.7000 -77.1000 226° Southwest 288 331 6,800  Level Potomac TRACON
06:18PM 38.6059 -77.4990 247° West  Level FlightAware Approximate
06:18PM 38.7000 -77.2000 270° West 293 337 9,700  Level Potomac TRACON
06:19PM 38.5547 -77.6239 237° Southwest  Level FlightAware Approximate
06:19PM 38.6833 -77.3167 260° West 341 392 11,400  Level Potomac TRACON
06:20PM 38.4893 -77.7380 237° Southwest  Level FlightAware Approximate
06:20PM 38.6167 -77.4500 237° Southwest 397 457 12,900  Level Potomac TRACON
06:21PM 38.5850 -77.5358 245° Southwest 421 484 14,400 1,920 Climbing Washington Center
06:22PM 38.5283 -77.6831 244° Southwest 428 493 16,400 1,980 Climbing Washington Center
06:23PM 38.4656 -77.8139 239° Southwest 434 499 18,500 1,860 Climbing Washington Center
06:24PM 38.3983 -77.9417 236° Southwest 439 505 20,200 1,680 Climbing Washington Center
06:25PM 38.3269 -78.0769 236° Southwest 453 521 22,000 1,680 Climbing Washington Center
06:26PM 38.2531 -78.2147 236° Southwest 470 541 23,600 2,100 Climbing Washington Center
06:27PM 38.1792 -78.3519 236° Southwest 470 541 26,200 2,160 Climbing Washington Center
06:28PM 38.1133 -78.4869 238° Southwest 470 541 28,000 1,620 Climbing Washington Center
06:29PM 38.0725 -78.6172 248° West 451 519 29,500 1,260 Climbing Washington Center
06:30PM 38.0231 -78.7603 246° West 451 519 30,600 1,260 Climbing Washington Center
06:31PM 37.9711 -78.9081 246° West 457 526 32,000 1,380 Climbing Washington Center
06:32PM 37.9186 -79.0611 247° West 446 513 33,400 960 Climbing Washington Center
06:33PM 37.8486 -79.1789 233° Southwest 429 494 34,000 300 Climbing Washington Center
06:34PM 37.7700 -79.2881 228° Southwest 429 494 34,000  Level Washington Center
06:35PM 37.6875 -79.3969 226° Southwest 434 499 34,000  Level Washington Center
06:36PM 37.6175 -79.4958 228° Southwest 434 499 34,000  Level Washington Center
06:37PM 37.5300 -79.6169 228° Southwest 434 499 34,000  Level Washington Center
06:38PM 37.4514 -79.7253 228° Southwest 427 491 34,000  Level Washington Center
06:39PM 37.3700 -79.8383 228° Southwest 432 497 34,000  Level Washington Center
06:40PM 37.2978 -79.9364 227° Southwest 432 497 34,000  Level Washington Center
06:42PM 37.1233 -80.1708 227° Southwest 443 510 34,000  Level Atlanta Center
06:43PM 37.0433 -80.2814 228° Southwest 436 502 34,000  Level Atlanta Center
06:44PM 36.9592 -80.3917 226° Southwest 430 495 34,000  Level Atlanta Center
06:45PM 36.8811 -80.4992 228° Southwest 430 495 34,000  Level Atlanta Center
06:46PM 36.8067 -80.5958 226° Southwest 430 495 34,000  Level Atlanta Center
06:47PM 36.7200 -80.7108 227° Southwest 430 495 34,000  Level Atlanta Center
06:48PM 36.6397 -80.8203 228° Southwest 425 489 34,000  Level Atlanta Center
06:49PM 36.5611 -80.9269 227° Southwest 425 489 34,000  Level Atlanta Center
06:50PM 36.4803 -81.0308 226° Southwest 425 489 34,000  Level Atlanta Center
06:51PM 36.3994 -81.1369 227° Southwest 430 495 34,000  Level Atlanta Center
06:52PM 36.3164 -81.2456 227° Southwest 435 501 34,000  Level Atlanta Center
06:53PM 36.2333 -81.3514 226° Southwest 435 501 34,000  Level Atlanta Center
06:54PM 36.1564 -81.4569 228° Southwest 430 495 34,000  Level Atlanta Center
06:55PM 36.0750 -81.5622 226° Southwest 430 495 34,000  Level Atlanta Center
06:56PM 35.9936 -81.6647 226° Southwest 430 495 34,000  Level Atlanta Center
06:57PM 35.9122 -81.7747 228° Southwest 430 495 34,000  Level Atlanta Center
06:58PM 35.8286 -81.8769 225° Southwest 430 495 34,000  Level Atlanta Center
06:59PM 35.7550 -81.9711 226° Southwest 430 495 34,000  Level Atlanta Center
07:00PM 35.6733 -82.0756 226° Southwest 430 495 34,000  Level Atlanta Center
07:01PM 35.5894 -82.1822 226° Southwest 435 501 34,000 -240 Level Atlanta Center
07:02PM 35.5097 -82.2833 226° Southwest 428 493 33,600 -900 Descending Atlanta Center
07:03PM 35.4253 -82.3769 222° Southwest 419 482 32,300 -1,380 Descending Atlanta Center
07:04PM 35.3453 -82.4653 222° Southwest 405 466 30,900 -1,500 Descending Atlanta Center
07:05PM 35.2650 -82.5533 222° Southwest 400 460 29,400 -1,440 Descending Atlanta Center
07:06PM 35.1825 -82.6461 223° Southwest 389 448 28,100 -1,200 Descending Atlanta Center
07:07PM 35.1064 -82.7389 225° Southwest 383 441 27,000 -1,380 Descending Atlanta Center
07:08PM 35.0319 -82.8186 221° Southwest 373 429 25,400 -1,440 Descending Atlanta Center
07:09PM 34.9639 -82.8906 221° Southwest 368 423 24,200 -720 Descending Atlanta Center
07:10PM 34.8894 -82.9700 221° Southwest 362 417 24,000 -480 Descending Atlanta Center
07:11PM 34.8192 -83.0544 225° Southwest 357 411 23,300 -1,020 Descending Atlanta Center
07:12PM 34.7447 -83.1289 219° Southwest 357 411 22,000 -1,260 Descending Atlanta Center
07:13PM 34.6742 -83.2078 223° Southwest 352 405 20,800 -1,020 Descending Atlanta Center
07:14PM 34.6081 -83.2817 223° Southwest 339 390 20,000 -420 Descending Atlanta Center
07:15PM 34.5394 -83.3553 221° Southwest 339 390 20,000 -240 Level Atlanta Center
07:16PM 34.4647 -83.4392 223° Southwest 339 390 19,600 -900 Descending Atlanta Center
07:17PM 34.3964 -83.5100 221° Southwest 334 384 18,300 -1,140 Descending Atlanta Center
07:18PM 34.3256 -83.5886 223° Southwest 339 390 17,400 -960 Descending Atlanta Center
07:19PM 34.2528 -83.6669 222° Southwest 345 397 16,400 -1,440 Descending Atlanta Center
07:20PM 34.1822 -83.7450 222° Southwest 351 404 14,600 -1,200 Descending Atlanta Center
07:21PM 34.1114 -83.8206 221° Southwest 351 404 14,000 -420 Descending Atlanta Center
07:22PM 34.0447 -83.8883 220° Southwest 329 379 13,800 -420 Descending Atlanta Center
07:22PM 34.0167 -83.9167 220° Southwest 320 368 13,500 -600 Descending Atlanta TRACON
07:23PM 33.9667 -83.9833 228° Southwest 314 361 13,100 -300 Descending Atlanta TRACON
07:24PM 33.9000 -84.0500 220° Southwest 318 366 13,000 -60 Descending Atlanta TRACON
07:25PM 33.8547 -84.0939 219° Southwest 317 365 13,000 -360 Level Atlanta Center
07:26PM 33.7667 -84.1667 214° Southwest 275 316 12,400 -840 Descending Atlanta TRACON
07:27PM 33.7333 -84.2333 239° Southwest 266 306 11,100 -780 Descending Atlanta TRACON
07:28PM 33.7333 -84.3167 270° West 265 305 10,900 -960 Descending Atlanta TRACON
07:29PM 33.7333 -84.4167 270° West 272 313 9,300 -1,500 Descending Atlanta TRACON
07:30PM 33.7333 -84.5000 270° West 266 306 7,900 -1,260 Descending Atlanta TRACON
07:31PM 33.7333 -84.5833 270° West 248 285 6,800 -1,320 Descending Atlanta TRACON
07:32PM 33.7333 -84.6667 270° West 246 283 5,300 -900 Descending Atlanta TRACON
07:33PM 33.7333 -84.7500 270° West 253 291 5,000 -180 Descending Atlanta TRACON
07:34PM 33.7333 -84.8333 270° West 236 272 5,000  Level Atlanta TRACON
07:35PM 33.7167 -84.9167 257° West 220 253 5,000  Level Atlanta TRACON
07:36PM 33.6833 -84.9167 180° South 185 213 5,000  Level Atlanta TRACON
07:37PM 33.6500 -84.9000 157° South 163 188 5,100  Climbing Atlanta TRACON
07:38PM 33.6500 -84.8333 90° East 158 182 5,000 -60 Descending Atlanta TRACON
07:39PM 33.6500 -84.7833 90° East 159 183 5,000  Level Atlanta TRACON
07:40PM 33.6500 -84.7167 90° East 164 189 5,000  Level Atlanta TRACON
07:41PM 33.6500 -84.6833 90° East 161 185 5,000 -480 Level Atlanta TRACON
07:42PM 33.6500 -84.6167 90° East 168 193 4,100 -900 Descending Atlanta TRACON